Edgewood, Minnesota
Current Conditions -  °F | °C
As of 5:36 PM on Saturday 20 Dec 2014 (Local Time) from KCBG Reporting Station
Overcast Overcast  
Wind Chill: 25°   Ceiling: 1100
Heat Index: 32°   Visibility: 7mi
Dew Point: 25°   Wind: 8mph
Humidity: 75%   Direction: 170°S
Pressure: 30.09"   Gusts: NA
Location:  45.5649°N, 93.3413°W
Report Text: KCBG 202336Z AUTO 17007KT 7SM OVC011 00/M04 A3009 RMK AO2
Loading
Personal Weather Stations






























Interactive Weather Map New forecast layout! Learn more

10-Day Weather Forecast

Advertisements
Track Severe Weather on mobile